sensor_id;sensor_type;location;lat;lon;timestamp;temperature;humidity
37281;DHT22;23169;41.804;12.596;2022-11-20T00:01:30;13.00;47.00
37281;DHT22;23169;41.804;12.596;2022-11-20T00:03:58;13.00;34.40
37281;DHT22;23169;41.804;12.596;2022-11-20T00:06:26;13.00;28.80
37281;DHT22;23169;41.804;12.596;2022-11-20T00:08:54;13.00;22.70
37281;DHT22;23169;41.804;12.596;2022-11-20T00:11:23;13.00;20.10
37281;DHT22;23169;41.804;12.596;2022-11-20T00:13:52;13.00;1.00
37281;DHT22;23169;41.804;12.596;2022-11-20T00:16:20;13.00;1.00
37281;DHT22;23169;41.804;12.596;2022-11-20T00:18:48;13.00;1.00
37281;DHT22;23169;41.804;12.596;2022-11-20T00:21:22;13.00;1.00
37281;DHT22;23169;41.804;12.596;2022-11-20T00:23:51;13.00;1.00
37281;DHT22;23169;41.804;12.596;2022-11-20T00:26:19;13.00;1.00
37281;DHT22;23169;41.804;12.596;2022-11-20T00:28:51;13.00;1.00
37281;DHT22;23169;41.804;12.596;2022-11-20T00:31:19;13.00;1.00
37281;DHT22;23169;41.804;12.596;2022-11-20T00:33:46;12.90;1.00
37281;DHT22;23169;41.804;12.596;2022-11-20T00:36:15;12.90;1.00
37281;DHT22;23169;41.804;12.596;2022-11-20T00:38:43;12.80;1.00
37281;DHT22;23169;41.804;12.596;2022-11-20T00:41:12;12.80;6.20
37281;DHT22;23169;41.804;12.596;2022-11-20T00:43:42;12.80;9.70
37281;DHT22;23169;41.804;12.596;2022-11-20T00:46:12;12.80;19.60
37281;DHT22;23169;41.804;12.596;2022-11-20T00:48:40;12.70;48.70
37281;DHT22;23169;41.804;12.596;2022-11-20T00:51:07;12.70;23.50
37281;DHT22;23169;41.804;12.596;2022-11-20T00:53:34;12.10;26.40
37281;DHT22;23169;41.804;12.596;2022-11-20T00:56:03;12.80;20.90
37281;DHT22;23169;41.804;12.596;2022-11-20T00:58:34;12.80;1.00
37281;DHT22;23169;41.804;12.596;2022-11-20T01:01:12;12.90;13.10
37281;DHT22;23169;41.804;12.596;2022-11-20T01:03:41;12.90;16.60
37281;DHT22;23169;41.804;12.596;2022-11-20T01:06:12;12.90;18.70
37281;DHT22;23169;41.804;12.596;2022-11-20T01:08:41;12.90;13.50
37281;DHT22;23169;41.804;12.596;2022-11-20T01:11:13;12.90;2.00
37281;DHT22;23169;41.804;12.596;2022-11-20T01:13:41;12.90;1.00
37281;DHT22;23169;41.804;12.596;2022-11-20T01:16:10;12.90;1.00
37281;DHT22;23169;41.804;12.596;2022-11-20T01:18:39;12.90;1.00
37281;DHT22;23169;41.804;12.596;2022-11-20T01:21:07;12.90;1.00
37281;DHT22;23169;41.804;12.596;2022-11-20T01:23:36;12.90;1.00
37281;DHT22;23169;41.804;12.596;2022-11-20T01:26:04;13.00;1.00
37281;DHT22;23169;41.804;12.596;2022-11-20T01:28:32;13.00;1.00
37281;DHT22;23169;41.804;12.596;2022-11-20T01:31:09;13.00;1.00
37281;DHT22;23169;41.804;12.596;2022-11-20T01:33:38;13.00;1.00
37281;DHT22;23169;41.804;12.596;2022-11-20T01:36:07;13.10;1.00
37281;DHT22;23169;41.804;12.596;2022-11-20T01:38:35;13.10;1.00
37281;DHT22;23169;41.804;12.596;2022-11-20T01:41:03;13.10;1.00
37281;DHT22;23169;41.804;12.596;2022-11-20T01:43:31;13.10;1.00
37281;DHT22;23169;41.804;12.596;2022-11-20T01:49:00;13.20;1.00
37281;DHT22;23169;41.804;12.596;2022-11-20T01:51:38;13.20;1.00
37281;DHT22;23169;41.804;12.596;2022-11-20T01:54:07;13.20;1.00
37281;DHT22;23169;41.804;12.596;2022-11-20T01:56:37;13.20;1.00
37281;DHT22;23169;41.804;12.596;2022-11-20T01:59:05;13.20;1.00
37281;DHT22;23169;41.804;12.596;2022-11-20T02:01:34;13.30;1.00
37281;DHT22;23169;41.804;12.596;2022-11-20T02:04:02;13.20;1.00
37281;DHT22;23169;41.804;12.596;2022-11-20T02:06:35;13.20;1.00
37281;DHT22;23169;41.804;12.596;2022-11-20T02:09:03;13.20;1.00
37281;DHT22;23169;41.804;12.596;2022-11-20T02:11:30;13.10;1.00
37281;DHT22;23169;41.804;12.596;2022-11-20T02:13:58;13.00;1.00
37281;DHT22;23169;41.804;12.596;2022-11-20T02:16:27;13.00;1.00
37281;DHT22;23169;41.804;12.596;2022-11-20T02:19:00;13.00;1.00
37281;DHT22;23169;41.804;12.596;2022-11-20T02:24:06;13.00;1.00
37281;DHT22;23169;41.804;12.596;2022-11-20T02:26:50;13.00;1.00
37281;DHT22;23169;41.804;12.596;2022-11-20T02:29:19;13.00;1.00
37281;DHT22;23169;41.804;12.596;2022-11-20T02:31:50;13.00;2.50
37281;DHT22;23169;41.804;12.596;2022-11-20T02:34:18;13.00;39.40
37281;DHT22;23169;41.804;12.596;2022-11-20T02:36:45;13.00;81.20
37281;DHT22;23169;41.804;12.596;2022-11-20T02:39:13;12.90;94.00
37281;DHT22;23169;41.804;12.596;2022-11-20T02:41:46;12.90;99.90
37281;DHT22;23169;41.804;12.596;2022-11-20T02:44:13;12.90;99.90
37281;DHT22;23169;41.804;12.596;2022-11-20T02:46:41;12.80;99.90
37281;DHT22;23169;41.804;12.596;2022-11-20T02:49:08;12.80;99.90
37281;DHT22;23169;41.804;12.596;2022-11-20T02:51:35;12.70;99.90
37281;DHT22;23169;41.804;12.596;2022-11-20T02:54:04;12.70;99.90
37281;DHT22;23169;41.804;12.596;2022-11-20T02:56:37;13.60;99.90
37281;DHT22;23169;41.804;12.596;2022-11-20T02:59:05;12.70;99.90
37281;DHT22;23169;41.804;12.596;2022-11-20T03:01:32;12.70;99.90
37281;DHT22;23169;41.804;12.596;2022-11-20T03:04:00;12.70;99.90
37281;DHT22;23169;41.804;12.596;2022-11-20T03:06:28;12.70;99.90
37281;DHT22;23169;41.804;12.596;2022-11-20T03:08:56;12.70;99.90
37281;DHT22;23169;41.804;12.596;2022-11-20T03:11:23;12.70;99.90
37281;DHT22;23169;41.804;12.596;2022-11-20T03:13:51;12.70;99.90
37281;DHT22;23169;41.804;12.596;2022-11-20T03:16:19;12.60;99.90
37281;DHT22;23169;41.804;12.596;2022-11-20T03:18:47;12.60;99.90
37281;DHT22;23169;41.804;12.596;2022-11-20T03:21:16;12.60;99.90
37281;DHT22;23169;41.804;12.596;2022-11-20T03:23:43;12.50;99.90
37281;DHT22;23169;41.804;12.596;2022-11-20T03:26:12;12.50;1.00
37281;DHT22;23169;41.804;12.596;2022-11-20T03:28:42;12.40;1.00
37281;DHT22;23169;41.804;12.596;2022-11-20T03:31:10;12.30;1.00
37281;DHT22;23169;41.804;12.596;2022-11-20T03:33:41;12.30;1.00
37281;DHT22;23169;41.804;12.596;2022-11-20T03:36:10;12.20;1.00
37281;DHT22;23169;41.804;12.596;2022-11-20T03:38:38;12.10;22.90
37281;DHT22;23169;41.804;12.596;2022-11-20T03:41:10;12.00;61.40
37281;DHT22;23169;41.804;12.596;2022-11-20T03:43:37;12.00;99.90
37281;DHT22;23169;41.804;12.596;2022-11-20T03:46:05;11.90;99.90
37281;DHT22;23169;41.804;12.596;2022-11-20T03:48:35;11.90;99.90
37281;DHT22;23169;41.804;12.596;2022-11-20T03:51:06;11.90;99.90
37281;DHT22;23169;41.804;12.596;2022-11-20T03:53:34;11.90;99.90
37281;DHT22;23169;41.804;12.596;2022-11-20T03:56:08;11.80;99.90
37281;DHT22;23169;41.804;12.596;2022-11-20T03:58:38;11.80;99.90
37281;DHT22;23169;41.804;12.596;2022-11-20T04:03:37;11.90;99.90
37281;DHT22;23169;41.804;12.596;2022-11-20T04:06:06;11.90;99.90
37281;DHT22;23169;41.804;12.596;2022-11-20T04:08:35;11.90;99.90
37281;DHT22;23169;41.804;12.596;2022-11-20T04:11:12;11.90;99.90
37281;DHT22;23169;41.804;12.596;2022-11-20T04:13:45;11.90;99.90
37281;DHT22;23169;41.804;12.596;2022-11-20T04:16:13;11.90;99.90
37281;DHT22;23169;41.804;12.596;2022-11-20T04:18:41;11.90;99.90
37281;DHT22;23169;41.804;12.596;2022-11-20T04:21:08;11.90;99.90
37281;DHT22;23169;41.804;12.596;2022-11-20T04:23:35;11.90;99.90
37281;DHT22;23169;41.804;12.596;2022-11-20T04:26:05;11.80;1.00
37281;DHT22;23169;41.804;12.596;2022-11-20T04:28:34;11.80;1.00
37281;DHT22;23169;41.804;12.596;2022-11-20T04:31:11;11.80;1.00
37281;DHT22;23169;41.804;12.596;2022-11-20T04:33:38;11.80;1.00
37281;DHT22;23169;41.804;12.596;2022-11-20T04:36:13;11.80;1.00
37281;DHT22;23169;41.804;12.596;2022-11-20T04:38:41;11.80;1.00
37281;DHT22;23169;41.804;12.596;2022-11-20T04:41:15;11.80;45.40
37281;DHT22;23169;41.804;12.596;2022-11-20T04:43:47;11.80;76.00
37281;DHT22;23169;41.804;12.596;2022-11-20T04:46:16;11.70;99.90
37281;DHT22;23169;41.804;12.596;2022-11-20T04:48:44;11.70;90.30
37281;DHT22;23169;41.804;12.596;2022-11-20T04:51:11;11.70;99.90
37281;DHT22;23169;41.804;12.596;2022-11-20T04:53:39;11.70;99.90
37281;DHT22;23169;41.804;12.596;2022-11-20T04:56:07;11.60;99.90
37281;DHT22;23169;41.804;12.596;2022-11-20T04:58:36;11.60;99.90
37281;DHT22;23169;41.804;12.596;2022-11-20T05:01:09;11.50;82.50
37281;DHT22;23169;41.804;12.596;2022-11-20T05:03:37;11.50;9.70
37281;DHT22;23169;41.804;12.596;2022-11-20T05:06:05;11.40;1.00
37281;DHT22;23169;41.804;12.596;2022-11-20T05:08:35;11.40;1.00
37281;DHT22;23169;41.804;12.596;2022-11-20T05:11:06;11.30;99.90
37281;DHT22;23169;41.804;12.596;2022-11-20T05:13:33;11.20;99.90
37281;DHT22;23169;41.804;12.596;2022-11-20T05:16:01;11.10;99.90
37281;DHT22;23169;41.804;12.596;2022-11-20T05:18:29;11.10;99.90
37281;DHT22;23169;41.804;12.596;2022-11-20T05:20:57;11.00;99.90
37281;DHT22;23169;41.804;12.596;2022-11-20T05:23:25;10.90;99.90
37281;DHT22;23169;41.804;12.596;2022-11-20T05:25:55;10.90;99.90
37281;DHT22;23169;41.804;12.596;2022-11-20T05:28:27;10.90;99.90
37281;DHT22;23169;41.804;12.596;2022-11-20T05:30:54;10.80;99.90
37281;DHT22;23169;41.804;12.596;2022-11-20T05:33:22;10.80;99.90
37281;DHT22;23169;41.804;12.596;2022-11-20T05:35:49;10.80;99.90
37281;DHT22;23169;41.804;12.596;2022-11-20T05:38:16;10.70;99.90
37281;DHT22;23169;41.804;12.596;2022-11-20T05:40:44;10.70;99.90
37281;DHT22;23169;41.804;12.596;2022-11-20T05:43:11;10.70;99.90
37281;DHT22;23169;41.804;12.596;2022-11-20T05:45:39;10.70;99.90
37281;DHT22;23169;41.804;12.596;2022-11-20T05:48:06;10.70;99.90
37281;DHT22;23169;41.804;12.596;2022-11-20T05:50:33;10.70;99.90
37281;DHT22;23169;41.804;12.596;2022-11-20T05:53:01;10.80;99.90
37281;DHT22;23169;41.804;12.596;2022-11-20T05:55:28;10.70;99.90
37281;DHT22;23169;41.804;12.596;2022-11-20T05:57:56;10.70;99.90
37281;DHT22;23169;41.804;12.596;2022-11-20T06:00:23;10.70;99.90
37281;DHT22;23169;41.804;12.596;2022-11-20T06:02:50;10.80;99.90
37281;DHT22;23169;41.804;12.596;2022-11-20T06:05:17;10.80;99.90
37281;DHT22;23169;41.804;12.596;2022-11-20T06:07:47;10.80;99.90
37281;DHT22;23169;41.804;12.596;2022-11-20T06:10:15;10.80;99.90
37281;DHT22;23169;41.804;12.596;2022-11-20T06:12:43;10.80;99.90
37281;DHT22;23169;41.804;12.596;2022-11-20T06:15:11;10.80;99.90
37281;DHT22;23169;41.804;12.596;2022-11-20T06:17:38;10.90;99.90
37281;DHT22;23169;41.804;12.596;2022-11-20T06:20:05;10.80;99.90
37281;DHT22;23169;41.804;12.596;2022-11-20T06:22:35;10.80;99.90
37281;DHT22;23169;41.804;12.596;2022-11-20T06:25:03;12.30;99.90
37281;DHT22;23169;41.804;12.596;2022-11-20T06:27:30;10.90;99.90
37281;DHT22;23169;41.804;12.596;2022-11-20T06:29:57;10.90;99.90
37281;DHT22;23169;41.804;12.596;2022-11-20T06:32:25;10.90;99.90
37281;DHT22;23169;41.804;12.596;2022-11-20T06:34:52;10.80;99.90
37281;DHT22;23169;41.804;12.596;2022-11-20T06:37:19;10.90;99.90
37281;DHT22;23169;41.804;12.596;2022-11-20T06:39:47;10.80;99.90
37281;DHT22;23169;41.804;12.596;2022-11-20T06:42:15;10.90;99.90
37281;DHT22;23169;41.804;12.596;2022-11-20T06:44:42;10.90;99.90
37281;DHT22;23169;41.804;12.596;2022-11-20T06:47:09;10.80;99.90
37281;DHT22;23169;41.804;12.596;2022-11-20T06:49:37;10.90;99.90
37281;DHT22;23169;41.804;12.596;2022-11-20T06:52:05;10.90;99.90
37281;DHT22;23169;41.804;12.596;2022-11-20T06:54:32;10.80;99.90
37281;DHT22;23169;41.804;12.596;2022-11-20T06:56:59;10.80;99.90
37281;DHT22;23169;41.804;12.596;2022-11-20T06:59:27;10.80;99.90
37281;DHT22;23169;41.804;12.596;2022-11-20T07:01:55;10.80;99.90
37281;DHT22;23169;41.804;12.596;2022-11-20T07:04:22;10.70;99.90
37281;DHT22;23169;41.804;12.596;2022-11-20T07:06:51;10.70;99.90
37281;DHT22;23169;41.804;12.596;2022-11-20T07:09:18;10.80;99.90
37281;DHT22;23169;41.804;12.596;2022-11-20T07:11:49;10.80;99.90
37281;DHT22;23169;41.804;12.596;2022-11-20T07:14:16;10.90;99.90
37281;DHT22;23169;41.804;12.596;2022-11-20T07:16:43;10.90;99.90
37281;DHT22;23169;41.804;12.596;2022-11-20T07:19:10;11.00;99.90
37281;DHT22;23169;41.804;12.596;2022-11-20T07:21:38;11.00;99.90
37281;DHT22;23169;41.804;12.596;2022-11-20T07:24:08;11.20;99.90
37281;DHT22;23169;41.804;12.596;2022-11-20T07:26:35;11.30;73.30
37281;DHT22;23169;41.804;12.596;2022-11-20T07:29:05;11.40;1.00
37281;DHT22;23169;41.804;12.596;2022-11-20T07:31:32;11.40;1.00
37281;DHT22;23169;41.804;12.596;2022-11-20T07:33:59;11.50;1.00
37281;DHT22;23169;41.804;12.596;2022-11-20T07:36:29;11.70;1.00
37281;DHT22;23169;41.804;12.596;2022-11-20T07:38:57;11.80;1.00
37281;DHT22;23169;41.804;12.596;2022-11-20T07:41:24;11.90;99.90
37281;DHT22;23169;41.804;12.596;2022-11-20T07:43:51;11.90;99.90
37281;DHT22;23169;41.804;12.596;2022-11-20T07:46:19;12.00;99.90
37281;DHT22;23169;41.804;12.596;2022-11-20T07:48:46;12.10;99.90
37281;DHT22;23169;41.804;12.596;2022-11-20T07:51:16;12.20;99.90
37281;DHT22;23169;41.804;12.596;2022-11-20T07:53:44;12.10;99.90
37281;DHT22;23169;41.804;12.596;2022-11-20T07:56:11;12.10;89.70
37281;DHT22;23169;41.804;12.596;2022-11-20T07:58:39;12.10;93.30
37281;DHT22;23169;41.804;12.596;2022-11-20T08:01:07;12.10;80.50
37281;DHT22;23169;41.804;12.596;2022-11-20T08:03:34;12.10;91.40
37281;DHT22;23169;41.804;12.596;2022-11-20T08:06:05;13.20;85.40
37281;DHT22;23169;41.804;12.596;2022-11-20T08:08:33;12.10;92.70
37281;DHT22;23169;41.804;12.596;2022-11-20T08:11:00;12.10;90.00
37281;DHT22;23169;41.804;12.596;2022-11-20T08:13:46;12.10;99.90
37281;DHT22;23169;41.804;12.596;2022-11-20T08:16:32;12.20;99.90
37281;DHT22;23169;41.804;12.596;2022-11-20T08:18:59;12.20;97.10
37281;DHT22;23169;41.804;12.596;2022-11-20T08:21:27;12.20;81.00
37281;DHT22;23169;41.804;12.596;2022-11-20T08:23:54;12.20;72.10
37281;DHT22;23169;41.804;12.596;2022-11-20T08:26:21;12.20;86.30
37281;DHT22;23169;41.804;12.596;2022-11-20T08:28:52;12.20;76.50
37281;DHT22;23169;41.804;12.596;2022-11-20T08:31:20;12.10;95.20
37281;DHT22;23169;41.804;12.596;2022-11-20T08:33:47;12.10;97.70
37281;DHT22;23169;41.804;12.596;2022-11-20T08:36:14;12.00;99.90
37281;DHT22;23169;41.804;12.596;2022-11-20T08:38:42;12.00;99.90
37281;DHT22;23169;41.804;12.596;2022-11-20T08:41:09;12.10;99.90
37281;DHT22;23169;41.804;12.596;2022-11-20T08:46:19;12.40;99.90
37281;DHT22;23169;41.804;12.596;2022-11-20T08:48:47;12.70;88.40
37281;DHT22;23169;41.804;12.596;2022-11-20T08:51:14;12.80;40.70
37281;DHT22;23169;41.804;12.596;2022-11-20T08:53:42;12.80;1.00
37281;DHT22;23169;41.804;12.596;2022-11-20T08:56:09;12.90;1.00
37281;DHT22;23169;41.804;12.596;2022-11-20T08:58:37;12.90;1.00
37281;DHT22;23169;41.804;12.596;2022-11-20T09:01:05;13.10;10.70
37281;DHT22;23169;41.804;12.596;2022-11-20T09:03:32;13.20;1.00
37281;DHT22;23169;41.804;12.596;2022-11-20T09:06:01;13.30;1.00
37281;DHT22;23169;41.804;12.596;2022-11-20T09:08:31;13.30;1.00
37281;DHT22;23169;41.804;12.596;2022-11-20T09:10:58;13.50;1.00
37281;DHT22;23169;41.804;12.596;2022-11-20T09:13:26;13.50;1.00
37281;DHT22;23169;41.804;12.596;2022-11-20T09:15:59;13.60;1.00
37281;DHT22;23169;41.804;12.596;2022-11-20T09:18:28;13.70;1.00
37281;DHT22;23169;41.804;12.596;2022-11-20T09:20:58;13.70;1.00
37281;DHT22;23169;41.804;12.596;2022-11-20T09:23:26;13.70;1.00
37281;DHT22;23169;41.804;12.596;2022-11-20T09:25:56;13.60;99.90
37281;DHT22;23169;41.804;12.596;2022-11-20T09:28:26;13.70;1.00
37281;DHT22;23169;41.804;12.596;2022-11-20T09:30:54;13.80;99.90
37281;DHT22;23169;41.804;12.596;2022-11-20T09:33:22;13.80;99.90
37281;DHT22;23169;41.804;12.596;2022-11-20T09:35:50;13.80;1.00
37281;DHT22;23169;41.804;12.596;2022-11-20T09:38:17;13.90;99.90
37281;DHT22;23169;41.804;12.596;2022-11-20T09:41:03;14.20;99.90
37281;DHT22;23169;41.804;12.596;2022-11-20T09:46:06;14.50;99.90
37281;DHT22;23169;41.804;12.596;2022-11-20T09:51:30;14.30;99.90
37281;DHT22;23169;41.804;12.596;2022-11-20T09:54:19;14.10;99.90
37281;DHT22;23169;41.804;12.596;2022-11-20T09:56:50;14.00;99.90
37281;DHT22;23169;41.804;12.596;2022-11-20T10:01:56;14.20;99.90
37281;DHT22;23169;41.804;12.596;2022-11-20T10:04:25;14.20;99.90
37281;DHT22;23169;41.804;12.596;2022-11-20T10:09:30;14.40;99.90
37281;DHT22;23169;41.804;12.596;2022-11-20T10:14:46;14.20;99.90
37281;DHT22;23169;41.804;12.596;2022-11-20T10:25:37;14.40;99.90
37281;DHT22;23169;41.804;12.596;2022-11-20T10:31:02;14.90;99.90
37281;DHT22;23169;41.804;12.596;2022-11-20T10:33:38;14.80;99.90
37281;DHT22;23169;41.804;12.596;2022-11-20T10:38:36;14.80;99.90
37281;DHT22;23169;41.804;12.596;2022-11-20T10:41:04;14.70;99.90
37281;DHT22;23169;41.804;12.596;2022-11-20T10:43:58;14.80;99.90
37281;DHT22;23169;41.804;12.596;2022-11-20T10:46:30;15.00;99.90
37281;DHT22;23169;41.804;12.596;2022-11-20T10:48:59;15.10;99.90
37281;DHT22;23169;41.804;12.596;2022-11-20T10:56:56;15.30;99.90
37281;DHT22;23169;41.804;12.596;2022-11-20T11:02:52;15.90;99.90
37281;DHT22;23169;41.804;12.596;2022-11-20T11:05:04;16.20;99.90
37281;DHT22;23169;41.804;12.596;2022-11-20T11:07:39;16.20;99.90
37281;DHT22;23169;41.804;12.596;2022-11-20T11:10:18;16.00;99.90
37281;DHT22;23169;41.804;12.596;2022-11-20T11:12:46;15.90;99.90
37281;DHT22;23169;41.804;12.596;2022-11-20T11:15:24;16.00;99.90
37281;DHT22;23169;41.804;12.596;2022-11-20T11:17:53;15.90;99.90
37281;DHT22;23169;41.804;12.596;2022-11-20T11:20:24;15.90;99.90
37281;DHT22;23169;41.804;12.596;2022-11-20T11:22:53;15.90;99.90
37281;DHT22;23169;41.804;12.596;2022-11-20T11:25:26;15.90;99.90
37281;DHT22;23169;41.804;12.596;2022-11-20T11:27:55;15.90;99.90
37281;DHT22;23169;41.804;12.596;2022-11-20T11:30:23;16.00;99.90
37281;DHT22;23169;41.804;12.596;2022-11-20T11:33:02;16.20;99.90
37281;DHT22;23169;41.804;12.596;2022-11-20T11:35:29;16.30;99.90
37281;DHT22;23169;41.804;12.596;2022-11-20T11:38:06;16.60;99.90
37281;DHT22;23169;41.804;12.596;2022-11-20T11:40:35;16.90;99.90
37281;DHT22;23169;41.804;12.596;2022-11-20T11:43:15;17.30;99.90
37281;DHT22;23169;41.804;12.596;2022-11-20T11:46:05;17.40;99.90
37281;DHT22;23169;41.804;12.596;2022-11-20T11:48:37;17.80;99.90
37281;DHT22;23169;41.804;12.596;2022-11-20T11:51:07;18.10;99.90
37281;DHT22;23169;41.804;12.596;2022-11-20T11:53:35;18.30;99.90
37281;DHT22;23169;41.804;12.596;2022-11-20T11:56:08;19.00;99.90
37281;DHT22;23169;41.804;12.596;2022-11-20T12:01:10;19.60;99.90
37281;DHT22;23169;41.804;12.596;2022-11-20T12:03:39;19.90;98.20
37281;DHT22;23169;41.804;12.596;2022-11-20T12:06:15;19.70;96.30
37281;DHT22;23169;41.804;12.596;2022-11-20T12:11:20;19.60;95.20
37281;DHT22;23169;41.804;12.596;2022-11-20T12:16:22;19.00;92.80
37281;DHT22;23169;41.804;12.596;2022-11-20T12:18:50;19.10;93.10
37281;DHT22;23169;41.804;12.596;2022-11-20T12:24:24;19.00;93.80
37281;DHT22;23169;41.804;12.596;2022-11-20T12:26:49;18.90;91.70
37281;DHT22;23169;41.804;12.596;2022-11-20T12:37:13;21.20;84.90
37281;DHT22;23169;41.804;12.596;2022-11-20T12:39:42;21.40;80.20
37281;DHT22;23169;41.804;12.596;2022-11-20T12:42:13;21.50;76.80
37281;DHT22;23169;41.804;12.596;2022-11-20T12:53:11;22.00;63.20
37281;DHT22;23169;41.804;12.596;2022-11-20T12:58:25;20.60;56.20
37281;DHT22;23169;41.804;12.596;2022-11-20T13:04:07;21.10;60.30
37281;DHT22;23169;41.804;12.596;2022-11-20T13:06:35;21.10;58.30
37281;DHT22;23169;41.804;12.596;2022-11-20T13:09:04;21.30;57.50
37281;DHT22;23169;41.804;12.596;2022-11-20T13:11:37;21.40;58.20
37281;DHT22;23169;41.804;12.596;2022-11-20T13:14:16;21.70;57.00
37281;DHT22;23169;41.804;12.596;2022-11-20T13:19:32;22.90;52.00
37281;DHT22;23169;41.804;12.596;2022-11-20T13:22:00;23.00;45.70
37281;DHT22;23169;41.804;12.596;2022-11-20T13:24:32;23.50;45.10
37281;DHT22;23169;41.804;12.596;2022-11-20T13:29:36;23.90;34.20
37281;DHT22;23169;41.804;12.596;2022-11-20T13:32:14;23.80;31.30
37281;DHT22;23169;41.804;12.596;2022-11-20T13:34:55;23.50;30.60
37281;DHT22;23169;41.804;12.596;2022-11-20T13:37:28;23.80;30.20
37281;DHT22;23169;41.804;12.596;2022-11-20T13:45:24;24.10;26.70
37281;DHT22;23169;41.804;12.596;2022-11-20T13:47:53;24.20;26.10
37281;DHT22;23169;41.804;12.596;2022-11-20T13:50:23;24.20;25.00
37281;DHT22;23169;41.804;12.596;2022-11-20T13:53:04;23.90;23.80
37281;DHT22;23169;41.804;12.596;2022-11-20T13:55:47;24.20;23.00
37281;DHT22;23169;41.804;12.596;2022-11-20T14:00:57;24.20;19.20
37281;DHT22;23169;41.804;12.596;2022-11-20T14:03:25;24.30;20.00
37281;DHT22;23169;41.804;12.596;2022-11-20T14:05:57;24.30;26.90
37281;DHT22;23169;41.804;12.596;2022-11-20T14:13:31;23.80;15.50
37281;DHT22;23169;41.804;12.596;2022-11-20T14:15:59;23.60;14.40
37281;DHT22;23169;41.804;12.596;2022-11-20T14:18:26;23.70;13.50
37281;DHT22;23169;41.804;12.596;2022-11-20T14:20:54;23.70;12.20
37281;DHT22;23169;41.804;12.596;2022-11-20T14:23:26;23.60;12.60
37281;DHT22;23169;41.804;12.596;2022-11-20T14:25:53;21.50;11.10
37281;DHT22;23169;41.804;12.596;2022-11-20T14:28:28;23.40;11.10
37281;DHT22;23169;41.804;12.596;2022-11-20T14:30:56;22.70;10.30
37281;DHT22;23169;41.804;12.596;2022-11-20T14:33:23;22.60;10.10
37281;DHT22;23169;41.804;12.596;2022-11-20T14:35:52;22.70;10.50
37281;DHT22;23169;41.804;12.596;2022-11-20T14:38:24;22.40;9.80
37281;DHT22;23169;41.804;12.596;2022-11-20T14:40:52;22.10;9.60
37281;DHT22;23169;41.804;12.596;2022-11-20T14:43:26;22.00;9.00
37281;DHT22;23169;41.804;12.596;2022-11-20T14:46:03;21.90;8.80
37281;DHT22;23169;41.804;12.596;2022-11-20T14:48:34;22.50;9.50
37281;DHT22;23169;41.804;12.596;2022-11-20T14:51:03;22.50;8.50
37281;DHT22;23169;41.804;12.596;2022-11-20T14:53:31;22.10;7.70
37281;DHT22;23169;41.804;12.596;2022-11-20T14:56:00;21.80;6.20
37281;DHT22;23169;41.804;12.596;2022-11-20T14:58:30;21.30;4.30
37281;DHT22;23169;41.804;12.596;2022-11-20T15:03:59;21.00;3.80
37281;DHT22;23169;41.804;12.596;2022-11-20T15:06:24;21.00;4.00
37281;DHT22;23169;41.804;12.596;2022-11-20T15:08:56;20.30;2.70
37281;DHT22;23169;41.804;12.596;2022-11-20T15:11:31;19.80;1.40
37281;DHT22;23169;41.804;12.596;2022-11-20T15:14:02;19.90;2.30
37281;DHT22;23169;41.804;12.596;2022-11-20T15:16:31;19.90;2.30
37281;DHT22;23169;41.804;12.596;2022-11-20T15:18:58;19.90;3.20
37281;DHT22;23169;41.804;12.596;2022-11-20T15:21:27;21.00;8.00
37281;DHT22;23169;41.804;12.596;2022-11-20T15:23:54;20.00;2.10
37281;DHT22;23169;41.804;12.596;2022-11-20T15:26:25;19.90;1.90
37281;DHT22;23169;41.804;12.596;2022-11-20T15:28:53;19.70;1.10
37281;DHT22;23169;41.804;12.596;2022-11-20T15:31:23;19.40;1.00
37281;DHT22;23169;41.804;12.596;2022-11-20T15:33:51;19.00;1.20
37281;DHT22;23169;41.804;12.596;2022-11-20T15:36:18;18.70;1.00
37281;DHT22;23169;41.804;12.596;2022-11-20T15:38:46;18.30;1.00
37281;DHT22;23169;41.804;12.596;2022-11-20T15:41:14;17.90;1.00
37281;DHT22;23169;41.804;12.596;2022-11-20T15:43:41;17.20;1.00
37281;DHT22;23169;41.804;12.596;2022-11-20T15:46:10;16.60;1.00
37281;DHT22;23169;41.804;12.596;2022-11-20T15:48:40;16.10;1.00
37281;DHT22;23169;41.804;12.596;2022-11-20T15:53:39;15.40;1.30
37281;DHT22;23169;41.804;12.596;2022-11-20T15:56:13;15.20;1.10
37281;DHT22;23169;41.804;12.596;2022-11-20T15:58:41;15.00;2.30
37281;DHT22;23169;41.804;12.596;2022-11-20T16:01:15;14.90;3.10
37281;DHT22;23169;41.804;12.596;2022-11-20T16:03:43;14.70;3.70
37281;DHT22;23169;41.804;12.596;2022-11-20T16:06:11;14.60;4.20
37281;DHT22;23169;41.804;12.596;2022-11-20T16:08:40;14.50;4.30
37281;DHT22;23169;41.804;12.596;2022-11-20T16:11:10;14.40;4.40
37281;DHT22;23169;41.804;12.596;2022-11-20T16:13:37;14.30;5.40
37281;DHT22;23169;41.804;12.596;2022-11-20T16:16:44;14.20;5.30
37281;DHT22;23169;41.804;12.596;2022-11-20T16:19:11;14.10;5.40
37281;DHT22;23169;41.804;12.596;2022-11-20T16:21:39;14.10;6.10
37281;DHT22;23169;41.804;12.596;2022-11-20T16:24:09;14.00;6.90
37281;DHT22;23169;41.804;12.596;2022-11-20T16:26:40;13.90;7.70
37281;DHT22;23169;41.804;12.596;2022-11-20T16:29:09;13.90;7.10
37281;DHT22;23169;41.804;12.596;2022-11-20T16:31:37;13.80;7.40
37281;DHT22;23169;41.804;12.596;2022-11-20T16:34:06;13.80;7.70
37281;DHT22;23169;41.804;12.596;2022-11-20T16:36:34;13.70;8.30
37281;DHT22;23169;41.804;12.596;2022-11-20T16:39:02;13.60;7.90
37281;DHT22;23169;41.804;12.596;2022-11-20T16:41:33;13.60;8.50
37281;DHT22;23169;41.804;12.596;2022-11-20T16:44:01;13.50;8.40
37281;DHT22;23169;41.804;12.596;2022-11-20T16:46:30;13.40;8.30
37281;DHT22;23169;41.804;12.596;2022-11-20T16:49:04;13.40;8.20
37281;DHT22;23169;41.804;12.596;2022-11-20T16:51:35;13.40;9.00
37281;DHT22;23169;41.804;12.596;2022-11-20T16:54:03;13.30;8.70
37281;DHT22;23169;41.804;12.596;2022-11-20T16:56:31;13.30;10.10
37281;DHT22;23169;41.804;12.596;2022-11-20T16:58:59;13.20;10.50
37281;DHT22;23169;41.804;12.596;2022-11-20T17:01:27;13.10;10.50
37281;DHT22;23169;41.804;12.596;2022-11-20T17:06:24;13.10;12.20
37281;DHT22;23169;41.804;12.596;2022-11-20T17:08:52;13.00;12.00
37281;DHT22;23169;41.804;12.596;2022-11-20T17:11:19;13.00;12.30
37281;DHT22;23169;41.804;12.596;2022-11-20T17:13:47;12.90;13.40
37281;DHT22;23169;41.804;12.596;2022-11-20T17:16:18;12.90;14.30
37281;DHT22;23169;41.804;12.596;2022-11-20T17:18:46;12.90;14.60
37281;DHT22;23169;41.804;12.596;2022-11-20T17:21:18;12.80;15.20